Time;durP1;ratioP1;P1;durP2;ratioP2;P2;SDS_P1;SDS_P2;PMS_P1;PMS_P2;Temp;Humidity;BMP_temperature;BMP_pressure;BME280_temperature;BME280_humidity;BME280_pressure;Samples;Min_cycle;Max_cycle;Signal;HPM_P1;HPM_P2
2022/07/09 00:00:30;;;;;;;10.93;6.47;;;;;;;14.08;100.00;103016.72;5053697;28;20029;-76
2022/07/09 00:02:55;;;;;;;12.35;7.43;;;;;;;14.05;100.00;103019.63;5053434;28;20060;-76
2022/07/09 00:05:21;;;;;;;12.00;7.00;;;;;;;14.05;100.00;103019.63;5053445;28;20044;-76
2022/07/09 00:07:46;;;;;;;13.82;8.75;;;;;;;14.01;100.00;103013.59;5053236;28;20190;-76
2022/07/09 00:10:11;;;;;;;14.18;7.82;;;;;;;13.98;100.00;103018.31;5052922;28;20047;-76
2022/07/09 00:12:37;;;;;;;9.85;6.70;;;;;;;13.94;100.00;103012.31;5052069;28;20107;-76
2022/07/09 00:15:03;;;;;;;11.30;7.35;;;;;;;13.89;100.00;103009.97;5053111;28;20473;-77
2022/07/09 00:17:29;;;;;;;12.10;7.15;;;;;;;13.88;100.00;103010.06;5053004;28;20033;-77
2022/07/09 00:19:56;;;;;;;9.75;6.30;;;;;;;13.86;100.00;103012.00;5052746;28;20094;-76
2022/07/09 00:22:21;;;;;;;11.45;8.38;;;;;;;13.85;100.00;103015.66;5053068;28;20052;-77
2022/07/09 00:24:47;;;;;;;8.80;5.97;;;;;;;13.80;100.00;103012.44;5053004;28;20040;-76
2022/07/09 00:27:12;;;;;;;10.18;7.00;;;;;;;13.80;100.00;103015.13;5053487;28;20039;-77
2022/07/09 00:29:37;;;;;;;9.55;5.75;;;;;;;13.75;100.00;103000.25;5053256;28;20148;-77
2022/07/09 00:32:03;;;;;;;9.35;5.95;;;;;;;13.74;100.00;103000.34;5051604;28;20131;-77
2022/07/09 00:34:28;;;;;;;9.60;6.03;;;;;;;13.71;100.00;103006.75;5053166;28;20025;-77
2022/07/09 00:36:54;;;;;;;13.63;8.38;;;;;;;13.71;100.00;103001.41;5052911;28;20390;-76
2022/07/09 00:39:19;;;;;;;9.20;6.80;;;;;;;13.70;100.00;103007.75;5052528;28;20086;-77
2022/07/09 00:41:44;;;;;;;18.60;9.43;;;;;;;13.71;100.00;103004.09;5052991;28;20025;-76
2022/07/09 00:44:10;;;;;;;13.65;8.70;;;;;;;13.77;100.00;102999.28;5052682;28;20045;-77
2022/07/09 00:46:35;;;;;;;14.80;8.93;;;;;;;13.76;100.00;103001.09;5052698;28;20029;-77
2022/07/09 00:49:03;;;;;;;17.73;11.48;;;;;;;13.76;100.00;103001.09;5052673;28;20406;-76
2022/07/09 00:51:30;;;;;;;15.73;8.80;;;;;;;13.79;100.00;103000.88;5052696;28;20044;-77
2022/07/09 00:53:56;;;;;;;13.77;8.93;;;;;;;13.80;100.00;102996.41;5052920;28;20116;-76
2022/07/09 00:56:22;;;;;;;26.45;12.82;;;;;;;13.83;100.00;102994.34;5052591;28;20064;-76
2022/07/09 00:58:48;;;;;;;22.75;12.38;;;;;;;13.87;100.00;102986.97;5052192;28;20087;-75
2022/07/09 01:01:13;;;;;;;20.75;12.05;;;;;;;13.88;100.00;102991.34;5052323;28;20025;-76
2022/07/09 01:03:38;;;;;;;18.30;11.32;;;;;;;13.85;100.00;102988.88;5052382;28;20078;-77
2022/07/09 01:06:04;;;;;;;18.98;10.32;;;;;;;13.82;100.00;102989.09;5051857;28;20391;-77
2022/07/09 01:08:30;;;;;;;14.02;8.50;;;;;;;13.78;100.00;102984.94;5051771;28;20175;-76
2022/07/09 01:11:01;;;;;;;21.02;11.57;;;;;;;13.75;100.00;102989.53;5052085;28;20025;-76
2022/07/09 01:13:27;;;;;;;15.55;8.63;;;;;;;13.72;100.00;102992.44;5051665;28;20103;-75
2022/07/09 01:15:52;;;;;;;14.15;9.15;;;;;;;13.73;100.00;102982.56;5052047;28;20037;-75
2022/07/09 01:18:19;;;;;;;22.60;10.15;;;;;;;13.79;100.00;102987.50;5052421;28;20402;-76
2022/07/09 01:20:44;;;;;;;18.48;10.95;;;;;;;13.91;100.00;102985.78;5052334;28;20036;-75
2022/07/09 01:23:10;;;;;;;21.00;11.88;;;;;;;14.03;100.00;102974.22;5051961;28;20399;-76
2022/07/09 01:25:40;;;;;;;20.20;10.23;;;;;;;14.19;100.00;102967.75;5050302;28;20110;-76
2022/07/09 01:28:08;;;;;;;18.52;9.50;;;;;;;14.35;100.00;102972.84;5051911;28;20025;-75
2022/07/09 01:30:35;;;;;;;16.42;9.60;;;;;;;14.47;100.00;102969.28;5051138;28;20035;-76
2022/07/09 01:33:00;;;;;;;18.08;8.98;;;;;;;14.55;100.00;102968.69;5051642;28;20418;-76
2022/07/09 01:35:26;;;;;;;11.63;7.97;;;;;;;14.57;100.00;102964.06;5052061;28;20039;-75
2022/07/09 01:37:52;;;;;;;13.05;7.80;;;;;;;14.57;100.00;102966.75;5051658;28;20033;-75
2022/07/09 01:40:18;;;;;;;12.57;8.30;;;;;;;14.55;100.00;102958.84;5051744;28;20043;-76
2022/07/09 01:42:43;;;;;;;12.50;7.38;;;;;;;14.52;100.00;102960.91;5051530;28;20029;-77
2022/07/09 01:45:09;;;;;;;10.25;6.13;;;;;;;14.45;100.00;102961.34;5051250;28;20531;-76
2022/07/09 01:47:35;;;;;;;12.27;6.70;;;;;;;14.38;100.00;102957.41;5051184;28;20043;-76
2022/07/09 01:50:01;;;;;;;9.73;6.05;;;;;;;14.29;100.00;102956.25;5051374;28;20029;-76
2022/07/09 01:52:28;;;;;;;9.52;6.70;;;;;;;14.24;100.00;102950.41;5050093;28;20115;-76
2022/07/09 01:54:53;;;;;;;10.77;6.63;;;;;;;14.21;100.00;102955.09;5051460;28;20545;-76
2022/07/09 01:57:18;;;;;;;11.07;6.30;;;;;;;14.17;100.00;102948.28;5051200;28;20025;-77
2022/07/09 01:59:44;;;;;;;7.97;4.65;;;;;;;14.07;100.00;102945.41;5051510;28;20353;-76
2022/07/09 02:02:09;;;;;;;10.25;5.50;;;;;;;14.01;100.00;102944.00;5051332;28;20353;-76
2022/07/09 02:04:34;;;;;;;10.65;5.88;;;;;;;13.99;100.00;102942.41;5051854;28;20334;-77
2022/07/09 02:07:00;;;;;;;7.85;5.45;;;;;;;13.98;100.00;102946.06;5051845;28;20040;-77
2022/07/09 02:09:25;;;;;;;6.43;4.70;;;;;;;13.92;100.00;102942.84;5051895;28;20124;-76
2022/07/09 02:11:51;;;;;;;7.38;5.53;;;;;;;13.92;100.00;102942.84;5051865;28;20033;-76
2022/07/09 02:14:16;;;;;;;8.88;5.80;;;;;;;13.92;100.00;102944.69;5049997;28;20124;-76
2022/07/09 02:16:42;;;;;;;8.65;4.93;;;;;;;13.88;100.00;102936.03;5051275;28;20033;-77
2022/07/09 02:19:07;;;;;;;13.07;5.20;;;;;;;13.84;100.00;102929.19;5051130;28;20025;-77
2022/07/09 02:21:33;;;;;;;10.82;4.60;;;;;;;13.82;100.00;102946.31;5049982;28;20425;-77
2022/07/09 02:23:59;;;;;;;6.80;4.38;;;;;;;13.82;100.00;102938.28;5051108;28;20087;-76
2022/07/09 02:26:29;;;;;;;7.05;4.50;;;;;;;13.87;100.00;102936.13;5051144;28;20025;-76
2022/07/09 02:28:58;;;;;;;7.85;4.60;;;;;;;13.96;100.00;102932.81;5051199;28;20116;-76
2022/07/09 02:31:24;;;;;;;4.93;4.32;;;;;;;14.06;100.00;102938.31;5050938;28;20033;-77
2022/07/09 02:33:50;;;;;;;7.63;4.82;;;;;;;14.12;100.00;102924.50;5050715;28;20152;-77
2022/07/09 02:36:15;;;;;;;8.02;4.90;;;;;;;14.22;100.00;102930.03;5051156;28;20036;-76
2022/07/09 02:38:40;;;;;;;9.27;4.60;;;;;;;14.26;100.00;102928.84;5051132;28;20388;-77
2022/07/09 02:41:06;;;;;;;8.73;4.45;;;;;;;14.33;100.00;102929.25;5051461;28;20040;-77
2022/07/09 02:43:32;;;;;;;6.95;4.68;;;;;;;14.41;100.00;102927.72;5054784;28;20354;-77
2022/07/09 02:45:57;;;;;;;10.43;4.75;;;;;;;14.50;100.00;102930.69;5055396;28;20337;-76
2022/07/09 02:48:23;;;;;;;7.53;4.60;;;;;;;14.58;100.00;102925.59;5054766;28;20033;-76
2022/07/09 02:50:52;;;;;;;6.85;4.20;;;;;;;14.67;100.00;102926.78;5054835;28;20104;-76
2022/07/09 02:53:18;;;;;;;7.97;4.65;;;;;;;14.74;100.00;102925.34;5054417;28;20115;-76
2022/07/09 02:55:43;;;;;;;9.57;4.60;;;;;;;14.81;100.00;102922.09;5054809;28;20167;-76
2022/07/09 02:58:10;;;;;;;8.55;4.80;;;;;;;14.89;100.00;102926.03;5054800;28;20434;-76
2022/07/09 03:00:36;;;;;;;7.78;4.03;;;;;;;14.95;100.00;102914.81;5054686;28;20076;-77
2022/07/09 03:03:01;;;;;;;8.43;4.47;;;;;;;15.02;100.00;102916.06;5055172;28;20040;-76
2022/07/09 03:05:26;;;;;;;5.60;3.50;;;;;;;15.05;100.00;102915.84;5054881;28;20107;-76
2022/07/09 03:07:52;;;;;;;7.05;3.42;;;;;;;15.07;100.00;102913.88;5053158;28;20039;-77
2022/07/09 03:10:17;;;;;;;5.90;3.45;;;;;;;15.08;100.00;102910.22;5054840;28;20043;-77
2022/07/09 03:12:42;;;;;;;4.65;3.42;;;;;;;15.12;100.00;102909.03;5054579;28;20040;-77
2022/07/09 03:15:08;;;;;;;7.45;3.50;;;;;;;15.15;100.00;102905.22;5054412;28;20036;-77
2022/07/09 03:17:34;;;;;;;6.50;3.55;;;;;;;15.18;100.00;102896.09;5054337;28;20036;-77
2022/07/09 03:20:00;;;;;;;4.55;3.55;;;;;;;15.19;100.00;102904.03;5054674;28;20033;-77
2022/07/09 03:22:26;;;;;;;7.32;3.88;;;;;;;15.22;100.00;102886.84;5053895;28;20037;-78
2022/07/09 03:24:51;;;;;;;8.88;4.00;;;;;;;15.27;100.00;102898.06;5053804;28;20068;-77
2022/07/09 03:27:16;;;;;;;7.13;3.90;;;;;;;15.32;100.00;102887.84;5054004;28;20036;-77
2022/07/09 03:29:42;;;;;;;7.22;3.58;;;;;;;15.37;100.00;102898.22;5054093;28;20033;-77
2022/07/09 03:32:08;;;;;;;6.82;3.83;;;;;;;15.38;100.00;102890.03;5054055;28;20055;-77
2022/07/09 03:34:33;;;;;;;5.53;3.63;;;;;;;15.43;100.00;102893.19;5053832;28;20068;-77
2022/07/09 03:36:59;;;;;;;4.90;3.47;;;;;;;15.44;100.00;102889.56;5053821;28;20061;-77
2022/07/09 03:39:25;;;;;;;8.07;4.00;;;;;;;15.48;100.00;102888.34;5054249;28;20075;-77
2022/07/09 03:41:50;;;;;;;11.45;3.70;;;;;;;15.55;100.00;102893.22;5053774;28;20032;-77
2022/07/09 03:44:16;;;;;;;5.60;3.80;;;;;;;15.58;100.00;102896.50;5053677;28;20076;-77
2022/07/09 03:46:41;;;;;;;5.40;3.60;;;;;;;15.61;100.00;102895.41;5054455;28;20478;-77
2022/07/09 03:49:06;;;;;;;5.47;3.05;;;;;;;15.63;100.00;102893.44;5054141;28;20369;-76
2022/07/09 03:51:32;;;;;;;7.43;3.22;;;;;;;15.64;100.00;102890.63;5052374;28;20462;-77
2022/07/09 03:53:57;;;;;;;8.15;2.80;;;;;;;15.65;100.00;102896.88;5053153;28;20032;-77
2022/07/09 03:56:23;;;;;;;7.32;3.30;;;;;;;15.66;100.00;102899.44;5053841;28;20025;-77
2022/07/09 03:58:48;;;;;;;7.20;3.08;;;;;;;15.67;100.00;102898.47;5054297;28;20575;-77
2022/07/09 04:01:14;;;;;;;4.68;3.10;;;;;;;15.68;100.00;102912.72;5053776;28;20040;-76
2022/07/09 04:03:40;;;;;;;4.85;3.20;;;;;;;15.69;100.00;102914.44;5053941;28;20025;-77
2022/07/09 04:06:05;;;;;;;15.25;4.30;;;;;;;15.74;100.00;102912.25;5053543;28;20055;-77
2022/07/09 04:08:30;;;;;;;8.55;4.07;;;;;;;15.78;100.00;102902.13;5052821;28;20313;-77
2022/07/09 04:10:56;;;;;;;8.50;3.90;;;;;;;15.82;100.00;102904.47;5053754;28;20029;-77
2022/07/09 04:13:21;;;;;;;5.05;3.70;;;;;;;15.85;100.00;102906.91;5051718;28;20033;-76
2022/07/09 04:15:47;;;;;;;9.02;3.80;;;;;;;15.88;100.00;102894.22;5051888;28;20037;-77
2022/07/09 04:18:14;;;;;;;10.82;4.45;;;;;;;15.88;100.00;102907.63;5053162;28;20029;-76
2022/07/09 04:20:40;;;;;;;7.03;4.15;;;;;;;15.84;100.00;102897.13;5053239;28;20079;-77
2022/07/09 04:23:05;;;;;;;9.73;4.05;;;;;;;15.82;100.00;102907.16;5035101;28;20033;-78
2022/07/09 04:25:30;;;;;;;6.95;4.00;;;;;;;15.77;100.00;102903.94;5053345;28;20037;-77
2022/07/09 04:27:56;;;;;;;8.52;4.57;;;;;;;15.72;100.00;102898.09;5053003;28;20032;-77
2022/07/09 04:30:21;;;;;;;12.45;5.13;;;;;;;15.71;100.00;102899.06;5051467;28;20040;-77
2022/07/09 04:32:46;;;;;;;10.32;5.60;;;;;;;15.71;100.00;102903.59;5052657;28;20033;-77
2022/07/09 04:35:12;;;;;;;9.15;5.63;;;;;;;15.71;100.00;102904.44;5052801;28;20037;-77
2022/07/09 04:37:37;;;;;;;11.65;6.03;;;;;;;15.71;100.00;102900.91;5053545;28;20522;-77
2022/07/09 04:40:04;;;;;;;9.30;5.88;;;;;;;15.74;100.00;102895.28;5052779;28;20044;-77
2022/07/09 04:42:29;;;;;;;9.52;6.40;;;;;;;15.79;100.00;102893.97;5054509;28;20035;-77
2022/07/09 04:44:57;;;;;;;11.90;7.30;;;;;;;15.83;100.00;102894.59;5053602;28;20053;-78
2022/07/09 04:47:22;;;;;;;9.52;6.70;;;;;;;15.89;100.00;102888.72;5052029;28;20037;-77
2022/07/09 04:49:48;;;;;;;13.93;8.05;;;;;;;15.93;100.00;102884.81;5053817;28;20381;-77
2022/07/09 04:52:17;;;;;;;14.15;7.70;;;;;;;15.97;100.00;102888.97;5053493;28;20033;-76
2022/07/09 04:54:43;;;;;;;10.82;7.68;;;;;;;15.99;100.00;102878.09;5052832;28;20487;-77
2022/07/09 04:57:08;;;;;;;13.88;8.25;;;;;;;16.03;100.00;102871.47;5052881;28;20029;-76
2022/07/09 04:59:33;;;;;;;13.43;8.40;;;;;;;16.05;100.00;102866.84;5052562;28;20057;-77
2022/07/09 05:01:59;;;;;;;13.73;8.85;;;;;;;16.09;100.00;102875.50;5052125;28;20067;-77
2022/07/09 05:04:24;;;;;;;15.38;8.55;;;;;;;16.13;100.00;102869.75;5052506;28;20032;-77
2022/07/09 05:06:49;;;;;;;11.90;9.05;;;;;;;16.17;100.00;102871.19;5051218;28;20036;-77
2022/07/09 05:09:15;;;;;;;14.88;9.57;;;;;;;16.22;100.00;102868.13;5052121;28;20029;-77
2022/07/09 05:11:40;;;;;;;24.63;10.27;;;;;;;16.25;100.00;102867.88;5052479;28;20112;-78
2022/07/09 05:14:06;;;;;;;13.32;9.75;;;;;;;16.28;100.00;102872.16;5050832;28;20044;-75
2022/07/09 05:16:32;;;;;;;14.75;9.40;;;;;;;16.31;100.00;102866.53;5051738;28;20109;-74
2022/07/09 05:18:57;;;;;;;19.00;9.27;;;;;;;16.34;100.00;102866.25;5052169;28;20040;-76
2022/07/09 05:21:22;;;;;;;16.42;9.15;;;;;;;16.36;100.00;102869.66;5051803;28;20036;-75
2022/07/09 05:23:48;;;;;;;17.38;9.32;;;;;;;16.39;100.00;102872.97;5052096;28;20028;-76
2022/07/09 05:26:13;;;;;;;12.23;8.18;;;;;;;16.45;100.00;102863.53;5034034;28;20090;-77
2022/07/09 05:28:38;;;;;;;12.75;8.63;;;;;;;16.52;100.00;102864.72;5051809;28;20093;-76
2022/07/09 05:31:04;;;;;;;14.00;8.52;;;;;;;16.57;100.00;102869.72;5051862;28;20165;-77
2022/07/09 05:33:29;;;;;;;13.25;8.20;;;;;;;16.62;100.00;102867.47;5051713;28;20033;-76
2022/07/09 05:35:54;;;;;;;13.52;8.00;;;;;;;16.66;100.00;102870.75;5051981;28;20033;-76
2022/07/09 05:38:21;;;;;;;15.55;7.15;;;;;;;16.69;100.00;102870.50;5051335;28;20461;-77
2022/07/09 05:40:46;;;;;;;11.82;7.45;;;;;;;16.68;100.00;102871.50;5051613;28;20495;-76
2022/07/09 05:43:11;;;;;;;12.30;7.03;;;;;;;16.69;100.00;102878.56;5051584;28;20024;-76
2022/07/09 05:45:36;;;;;;;17.25;7.43;;;;;;;16.68;100.00;102876.88;5051531;28;20550;-76
2022/07/09 05:48:02;;;;;;;17.75;6.90;;;;;;;16.71;100.00;102876.59;5051142;28;20115;-76
2022/07/09 05:50:28;;;;;;;9.48;6.05;;;;;;;16.75;100.00;102883.44;5051331;28;20369;-76
2022/07/09 05:52:53;;;;;;;9.88;5.32;;;;;;;16.81;100.00;102890.97;5051560;28;20041;-75
2022/07/09 05:55:19;;;;;;;16.05;5.30;;;;;;;16.84;100.00;102895.22;5051458;28;20032;-76
2022/07/09 05:57:46;;;;;;;8.07;4.18;;;;;;;16.88;100.00;102885.94;5050093;28;20029;-77
2022/07/09 06:00:11;;;;;;;7.28;4.25;;;;;;;16.95;100.00;102879.06;5051099;28;20481;-76
2022/07/09 06:02:37;;;;;;;6.60;3.45;;;;;;;17.06;100.00;102880.81;5033119;28;20106;-76
2022/07/09 06:05:03;;;;;;;7.90;3.25;;;;;;;17.17;100.00;102885.31;5051562;28;20029;-78
2022/07/09 06:07:28;;;;;;;5.13;2.70;;;;;;;17.25;100.00;102886.31;5051785;28;20025;-77
2022/07/09 06:09:53;;;;;;;4.50;2.60;;;;;;;17.31;100.00;102884.09;5051103;28;20393;-77
2022/07/09 06:12:19;;;;;;;4.13;2.10;;;;;;;17.38;100.00;102880.72;5051540;28;20091;-76
2022/07/09 06:14:44;;;;;;;8.02;1.90;;;;;;;17.43;98.47;102891.91;5051305;28;20161;-75
2022/07/09 06:17:09;;;;;;;4.78;1.80;;;;;;;17.47;96.75;102889.84;5053526;28;20470;-77
2022/07/09 06:19:36;;;;;;;5.93;1.70;;;;;;;17.53;96.36;102889.28;5055835;28;20068;-77
2022/07/09 06:22:02;;;;;;;4.03;1.65;;;;;;;17.70;96.31;102889.63;5055522;28;20041;-76
2022/07/09 06:24:27;;;;;;;3.55;1.40;;;;;;;17.86;94.72;102881.88;5055411;28;20603;-75
2022/07/09 06:26:53;;;;;;;4.82;1.85;;;;;;;18.00;92.63;102880.66;5055311;28;20166;-75
2022/07/09 06:29:19;;;;;;;4.45;1.67;;;;;;;18.03;91.39;102893.00;5053960;28;20137;-76
2022/07/09 06:31:44;;;;;;;3.55;1.83;;;;;;;18.01;90.40;102890.47;5055019;28;20497;-76
2022/07/09 06:34:10;;;;;;;3.42;1.30;;;;;;;17.88;90.89;102892.53;5055291;28;20130;-76
2022/07/09 06:36:36;;;;;;;4.75;1.40;;;;;;;17.86;92.16;102898.03;5054785;28;20544;-76
2022/07/09 06:41:46;;;;;;;2.38;1.20;;;;;;;17.92;91.08;102912.84;5055622;28;20547;-76
2022/07/09 06:44:11;;;;;;;3.88;1.20;;;;;;;18.13;90.86;102913.59;5054674;28;20390;-74
2022/07/09 06:46:38;;;;;;;5.35;1.33;;;;;;;18.44;88.52;102913.50;5055288;28;20048;-75
2022/07/09 06:49:03;;;;;;;3.63;1.30;;;;;;;18.65;86.77;102907.97;5055317;28;20037;-75
2022/07/09 06:51:29;;;;;;;2.17;1.10;;;;;;;18.76;86.05;102906.13;5055083;28;20358;-76
2022/07/09 06:53:54;;;;;;;1.25;1.08;;;;;;;18.90;85.50;102908.41;5055547;28;20029;-76
2022/07/09 06:56:20;;;;;;;5.15;1.45;;;;;;;19.07;85.73;102914.91;5055691;28;20036;-76
2022/07/09 06:58:45;;;;;;;4.65;1.38;;;;;;;19.13;84.34;102914.31;5056056;28;20051;-75
2022/07/09 07:01:10;;;;;;;4.45;1.30;;;;;;;19.13;83.58;102914.31;5055255;28;20414;-77
2022/07/09 07:03:36;;;;;;;5.75;1.15;;;;;;;19.18;83.19;102922.84;5055081;28;20040;-76
2022/07/09 07:06:01;;;;;;;1.40;0.98;;;;;;;19.24;83.60;102917.84;5054901;28;20061;-75
2022/07/09 07:08:26;;;;;;;2.42;1.20;;;;;;;19.41;83.32;102922.50;5055992;28;20060;-75
2022/07/09 07:10:52;;;;;;;2.15;1.38;;;;;;;19.58;81.43;102936.22;5054962;28;20039;-75
2022/07/09 07:13:17;;;;;;;3.85;1.30;;;;;;;19.47;79.43;102943.50;5055336;28;20056;-72
2022/07/09 07:15:44;;;;;;;3.42;1.30;;;;;;;19.38;79.86;102938.97;5055084;28;20067;-72
2022/07/09 07:18:10;;;;;;;5.75;1.52;;;;;;;19.24;80.28;102932.19;5053741;28;20029;-72
2022/07/09 07:20:35;;;;;;;2.85;1.33;;;;;;;19.06;80.53;102928.53;5054658;28;20174;-73
2022/07/09 07:23:00;;;;;;;7.18;1.65;;;;;;;18.88;80.76;102941.91;5054914;28;20119;-71
2022/07/09 07:25:26;;;;;;;8.23;1.80;;;;;;;18.66;81.84;102944.72;5054960;28;20044;-71
2022/07/09 07:27:51;;;;;;;7.05;1.40;;;;;;;18.51;82.14;102946.09;5053658;28;20025;-72
2022/07/09 07:30:17;;;;;;;4.53;1.42;;;;;;;18.36;82.63;102942.13;5055335;28;20135;-71
2022/07/09 07:32:42;;;;;;;4.32;1.60;;;;;;;18.27;83.30;102944.69;5054951;28;20094;-71
2022/07/09 07:35:07;;;;;;;7.78;1.42;;;;;;;18.24;83.34;102946.78;5054829;28;20109;-71
2022/07/09 07:37:33;;;;;;;5.10;1.35;;;;;;;18.27;83.29;102944.69;5054673;28;20171;-71
2022/07/09 07:39:58;;;;;;;5.43;1.50;;;;;;;18.45;83.15;102946.69;5052999;28;20453;-70
2022/07/09 07:42:24;;;;;;;3.92;1.60;;;;;;;18.68;82.16;102940.03;5054421;28;20055;-71
2022/07/09 07:44:49;;;;;;;5.40;1.40;;;;;;;18.93;80.45;102945.00;5054023;28;20144;-71
2022/07/09 07:47:15;;;;;;;5.78;1.27;;;;;;;19.15;79.25;102936.63;5054618;28;20108;-72
2022/07/09 07:49:40;;;;;;;6.35;1.67;;;;;;;19.42;78.15;102937.66;5054104;28;20029;-72
2022/07/09 07:52:06;;;;;;;5.05;1.40;;;;;;;19.48;76.49;102937.09;5054126;28;20098;-72
2022/07/09 07:54:31;;;;;;;7.80;2.45;;;;;;;19.48;76.54;102942.50;5053981;28;20037;-71
2022/07/09 07:56:57;;;;;;;3.50;1.45;;;;;;;19.57;76.43;102954.25;5054044;28;20116;-70
2022/07/09 07:59:22;;;;;;;4.68;1.52;;;;;;;19.55;75.79;102938.19;5054452;28;20039;-74
2022/07/09 08:01:48;;;;;;;7.55;1.55;;;;;;;19.59;74.83;102936.06;5053966;28;20112;-75
2022/07/09 08:04:13;;;;;;;3.08;1.08;;;;;;;19.68;75.60;102937.03;5053702;28;20348;-74
2022/07/09 08:06:39;;;;;;;3.22;1.40;;;;;;;19.76;74.53;102937.13;5053791;28;20441;-75
2022/07/09 08:09:04;;;;;;;4.85;1.67;;;;;;;19.77;75.61;102929.88;5052666;28;20033;-74
2022/07/09 08:11:30;;;;;;;5.00;1.10;;;;;;;19.91;74.63;102932.09;5053916;28;20029;-73
2022/07/09 08:13:56;;;;;;;4.85;1.42;;;;;;;20.14;73.10;102927.16;5054057;28;20043;-76
2022/07/09 08:16:21;;;;;;;3.83;1.50;;;;;;;20.39;71.52;102924.69;5053958;28;20098;-80
2022/07/09 08:18:47;;;;;;;6.63;2.03;;;;;;;20.67;71.42;102935.47;5054441;28;20029;-81
2022/07/09 08:21:13;;;;;;;5.45;1.20;;;;;;;20.80;69.79;102932.38;5054428;28;20039;-82
2022/07/09 08:23:54;;;;;;;4.90;1.70;;;;;;;21.01;68.45;102930.16;5054231;28;20037;-80
2022/07/09 08:26:25;;;;;;;5.68;1.20;;;;;;;21.31;65.83;102918.00;5054816;28;20033;-82
2022/07/09 08:28:51;;;;;;;4.85;1.33;;;;;;;21.39;64.80;102921.78;5052521;28;20446;-79
2022/07/09 08:31:17;;;;;;;4.50;1.23;;;;;;;21.46;65.24;102929.09;5052895;28;20075;-82
2022/07/09 08:33:43;;;;;;;4.05;1.33;;;;;;;21.50;63.80;102932.38;5052915;28;20116;-88
2022/07/09 08:36:08;;;;;;;3.17;1.00;;;;;;;21.49;63.92;102936.91;5053246;28;20111;-83
2022/07/09 08:38:34;;;;;;;2.53;1.27;;;;;;;21.59;62.58;102925.16;5053095;28;20029;-81
2022/07/09 08:41:00;;;;;;;3.42;1.00;;;;;;;21.74;62.87;102939.78;5052587;28;20072;-79
2022/07/09 08:43:29;;;;;;;8.32;1.20;;;;;;;22.04;62.01;102929.38;5052752;28;20074;-77
2022/07/09 08:45:56;;;;;;;2.28;0.98;;;;;;;22.16;59.16;102927.22;5053074;28;20075;-87
2022/07/09 08:48:22;;;;;;;7.40;1.30;;;;;;;22.38;60.45;102924.91;5051867;28;20025;-78
2022/07/09 08:50:51;;;;;;;7.35;1.27;;;;;;;22.42;60.43;102928.97;5052756;28;20048;-87
2022/07/09 08:53:18;;;;;;;2.15;1.02;;;;;;;22.48;58.21;102929.19;5052847;28;20060;-77
2022/07/09 08:55:45;;;;;;;3.08;0.65;;;;;;;22.44;57.21;102924.25;5051554;28;20029;-78
2022/07/09 08:58:13;;;;;;;2.08;1.00;;;;;;;22.84;56.00;102930.69;5053816;28;20446;-79
2022/07/09 09:00:38;;;;;;;4.45;1.02;;;;;;;22.96;54.24;102925.75;5053724;28;20119;-81
2022/07/09 09:03:05;;;;;;;2.55;1.00;;;;;;;23.30;55.14;102920.13;5053314;28;20058;-81
2022/07/09 09:05:30;;;;;;;5.43;1.40;;;;;;;23.73;54.75;102926.09;5054084;28;20052;-79
2022/07/09 09:07:55;;;;;;;1.45;0.88;;;;;;;24.04;51.93;102919.88;5053787;28;20469;-83
2022/07/09 09:10:26;;;;;;;3.53;0.93;;;;;;;24.49;50.71;102925.53;5052686;28;20070;-81
2022/07/09 09:12:58;;;;;;;3.08;0.80;;;;;;;25.23;46.88;102913.13;5053021;28;20061;-79
2022/07/09 09:15:24;;;;;;;3.60;0.88;;;;;;;25.83;45.73;102909.38;5052720;28;20507;-78
2022/07/09 09:17:50;;;;;;;3.30;1.00;;;;;;;26.57;43.70;102910.16;5052115;28;20032;-82
2022/07/09 09:20:16;;;;;;;4.47;0.90;;;;;;;27.03;42.54;102917.91;5052754;28;20094;-82
2022/07/09 09:22:50;;;;;;;4.38;0.85;;;;;;;27.61;40.65;102919.53;5052935;28;20036;-81
2022/07/09 09:25:19;;;;;;;1.85;0.80;;;;;;;27.13;39.82;102924.94;5052835;28;20044;-84
2022/07/09 09:27:57;;;;;;;1.02;0.75;;;;;;;26.36;40.91;102922.78;5051599;28;20098;-79
2022/07/09 09:30:23;;;;;;;3.10;0.70;;;;;;;25.33;43.28;102927.34;5053702;28;20095;-79
2022/07/09 09:32:59;;;;;;;1.33;0.70;;;;;;;24.53;44.75;102935.03;5053646;28;20104;-81
2022/07/09 09:35:29;;;;;;;1.17;0.70;;;;;;;24.68;44.04;102935.09;5053139;28;20064;-80
2022/07/09 09:37:56;;;;;;;2.05;1.00;;;;;;;25.17;43.70;102931.94;5054550;28;20434;-80
2022/07/09 09:40:23;;;;;;;2.60;0.65;;;;;;;25.75;43.80;102930.44;5052933;28;20032;-80
2022/07/09 09:42:49;;;;;;;1.25;0.70;;;;;;;26.75;42.18;102931.53;5052469;28;20084;-76
2022/07/09 09:45:16;;;;;;;0.73;0.70;;;;;;;27.16;39.80;102935.44;5052470;28;20053;-77
2022/07/09 09:47:49;;;;;;;0.90;0.63;;;;;;;25.90;41.18;102928.56;5053205;28;20037;-81
2022/07/09 09:50:20;;;;;;;0.90;0.63;;;;;;;26.52;40.39;102931.75;5052927;28;20074;-80
2022/07/09 09:52:47;;;;;;;1.75;1.05;;;;;;;26.87;37.23;102926.41;5053273;28;20029;-79
2022/07/09 09:55:13;;;;;;;2.17;0.80;;;;;;;27.02;38.33;102931.75;5053412;28;20060;-80
2022/07/09 09:57:39;;;;;;;1.00;0.90;;;;;;;26.78;37.70;102933.06;5054538;28;20052;-80
2022/07/09 10:00:06;;;;;;;3.08;0.80;;;;;;;26.48;39.77;102933.16;5054824;28;20371;-82
2022/07/09 10:02:33;;;;;;;0.70;0.70;;;;;;;25.88;39.48;102938.78;5055634;28;20033;-77
2022/07/09 10:04:59;;;;;;;1.00;0.90;;;;;;;25.29;40.75;102942.34;5053732;28;20048;-78
2022/07/09 10:07:25;;;;;;;1.65;0.75;;;;;;;25.43;41.75;102940.72;5036470;28;20037;-78
2022/07/09 10:09:58;;;;;;;2.45;0.82;;;;;;;25.53;41.70;102935.81;5036132;28;20408;-78
2022/07/09 10:12:32;;;;;;;2.88;0.98;;;;;;;24.73;42.78;102940.84;5055050;28;20037;-85
2022/07/09 10:15:01;;;;;;;2.05;0.80;;;;;;;24.26;45.08;102944.56;5052775;28;20044;-88
2022/07/09 10:17:27;;;;;;;3.95;1.17;;;;;;;24.11;46.26;102956.19;5053862;28;20033;-83
2022/07/09 10:20:06;;;;;;;4.00;0.98;;;;;;;23.81;46.29;102957.84;5051209;28;20029;-83
2022/07/09 10:22:38;;;;;;;7.35;1.27;;;;;;;24.23;47.77;102959.38;5052302;28;20454;-81
2022/07/09 10:25:05;;;;;;;5.40;1.13;;;;;;;23.85;48.14;102959.22;5052341;28;20021;-80
2022/07/09 10:27:41;;;;;;;6.35;1.30;;;;;;;23.29;50.61;102961.91;5052313;28;20029;-80
2022/07/09 10:30:08;;;;;;;3.72;1.10;;;;;;;22.70;53.65;102962.06;5051028;28;20033;-78
2022/07/09 10:32:35;;;;;;;5.03;1.30;;;;;;;22.10;54.67;102960.41;5052197;28;20480;-82
2022/07/09 10:35:05;;;;;;;3.10;1.17;;;;;;;22.30;56.89;102964.53;5051013;28;20409;-81
2022/07/09 10:37:44;;;;;;;9.02;1.67;;;;;;;22.42;56.06;102964.25;5052216;28;20033;-79
2022/07/09 10:40:14;;;;;;;4.82;1.20;;;;;;;22.12;57.14;102959.22;5050891;28;20487;-84
2022/07/09 10:42:41;;;;;;;8.38;1.63;;;;;;;21.67;56.20;102960.38;5053366;28;20025;-84
2022/07/09 10:45:35;;;;;;;6.78;1.55;;;;;;;21.70;58.38;102970.91;5052590;28;20055;-82
2022/07/09 10:48:04;;;;;;;6.00;1.58;;;;;;;22.80;55.13;102962.75;5053566;28;20107;-81
2022/07/09 10:50:31;;;;;;;6.95;1.40;;;;;;;23.14;53.01;102964.47;5053169;28;20435;-85
2022/07/09 10:52:59;;;;;;;7.13;1.63;;;;;;;23.27;51.34;102966.66;5050635;28;20029;-81
2022/07/09 10:55:27;;;;;;;3.75;1.33;;;;;;;23.05;52.17;102970.91;5052494;28;20135;-85
2022/07/09 10:57:54;;;;;;;5.68;1.40;;;;;;;22.69;53.37;102963.94;5052343;28;20040;-80
2022/07/09 11:00:30;;;;;;;6.45;1.73;;;;;;;23.19;52.97;102966.69;5051956;28;20029;-78
2022/07/09 11:03:02;;;;;;;7.60;1.50;;;;;;;23.02;52.04;102972.09;5054307;28;20025;-81
2022/07/09 11:05:28;;;;;;;5.65;1.38;;;;;;;23.29;52.28;102971.91;5056215;28;20525;-80
2022/07/09 11:07:58;;;;;;;8.75;1.40;;;;;;;24.03;50.65;102977.16;5055583;28;20035;-80
2022/07/09 11:10:25;;;;;;;5.05;1.60;;;;;;;24.27;48.14;102971.59;5055345;28;20466;-79
2022/07/09 11:12:51;;;;;;;6.32;1.63;;;;;;;24.61;47.78;102978.50;5055599;28;20029;-78
2022/07/09 11:15:18;;;;;;;5.38;1.40;;;;;;;25.32;45.96;102972.84;5055217;28;20033;-77
2022/07/09 11:17:43;;;;;;;5.78;1.65;;;;;;;25.34;44.55;102983.53;5054132;28;20167;-79